sensor_id;sensor_type;location;lat;lon;timestamp;P1;durP1;ratioP1;P2;durP2;ratioP2
51686;SDS011;37774;52.192;4.584;2022-12-31T00:01:29;3.53;;;0.65;;
51686;SDS011;37774;52.192;4.584;2022-12-31T00:03:56;2.72;;;0.80;;
51686;SDS011;37774;52.192;4.584;2022-12-31T00:06:25;6.95;;;0.68;;
51686;SDS011;37774;52.192;4.584;2022-12-31T00:08:54;3.10;;;0.47;;
51686;SDS011;37774;52.192;4.584;2022-12-31T00:11:23;5.53;;;1.27;;
51686;SDS011;37774;52.192;4.584;2022-12-31T00:13:51;3.17;;;1.10;;
51686;SDS011;37774;52.192;4.584;2022-12-31T00:16:19;4.30;;;0.80;;
51686;SDS011;37774;52.192;4.584;2022-12-31T00:18:52;3.33;;;0.75;;
51686;SDS011;37774;52.192;4.584;2022-12-31T00:21:20;2.80;;;0.80;;
51686;SDS011;37774;52.192;4.584;2022-12-31T00:23:48;11.05;;;1.05;;
51686;SDS011;37774;52.192;4.584;2022-12-31T00:26:17;8.15;;;1.13;;
51686;SDS011;37774;52.192;4.584;2022-12-31T00:28:45;4.60;;;0.73;;
51686;SDS011;37774;52.192;4.584;2022-12-31T00:31:13;10.05;;;1.40;;
51686;SDS011;37774;52.192;4.584;2022-12-31T00:33:42;11.77;;;1.02;;
51686;SDS011;37774;52.192;4.584;2022-12-31T00:36:10;5.95;;;1.00;;
51686;SDS011;37774;52.192;4.584;2022-12-31T00:38:38;2.90;;;0.65;;
51686;SDS011;37774;52.192;4.584;2022-12-31T00:41:07;7.90;;;1.30;;
51686;SDS011;37774;52.192;4.584;2022-12-31T00:43:34;7.70;;;0.73;;
51686;SDS011;37774;52.192;4.584;2022-12-31T00:46:01;5.78;;;1.33;;
51686;SDS011;37774;52.192;4.584;2022-12-31T00:48:29;11.10;;;1.10;;
51686;SDS011;37774;52.192;4.584;2022-12-31T00:50:57;7.72;;;1.20;;
51686;SDS011;37774;52.192;4.584;2022-12-31T00:53:25;14.02;;;1.40;;
51686;SDS011;37774;52.192;4.584;2022-12-31T00:55:57;9.05;;;1.65;;
51686;SDS011;37774;52.192;4.584;2022-12-31T00:58:27;12.35;;;1.45;;
51686;SDS011;37774;52.192;4.584;2022-12-31T01:00:54;8.27;;;1.08;;
51686;SDS011;37774;52.192;4.584;2022-12-31T01:03:21;13.93;;;1.85;;
51686;SDS011;37774;52.192;4.584;2022-12-31T01:05:48;8.60;;;1.30;;
51686;SDS011;37774;52.192;4.584;2022-12-31T01:08:15;15.73;;;2.28;;
51686;SDS011;37774;52.192;4.584;2022-12-31T01:10:46;15.98;;;2.80;;
51686;SDS011;37774;52.192;4.584;2022-12-31T01:13:32;8.88;;;1.42;;
51686;SDS011;37774;52.192;4.584;2022-12-31T01:16:05;9.05;;;0.98;;
51686;SDS011;37774;52.192;4.584;2022-12-31T01:18:33;7.78;;;0.73;;
51686;SDS011;37774;52.192;4.584;2022-12-31T01:21:00;6.68;;;1.23;;
51686;SDS011;37774;52.192;4.584;2022-12-31T01:23:27;4.63;;;1.67;;
51686;SDS011;37774;52.192;4.584;2022-12-31T01:25:54;8.65;;;1.00;;
51686;SDS011;37774;52.192;4.584;2022-12-31T01:28:21;4.68;;;1.00;;
51686;SDS011;37774;52.192;4.584;2022-12-31T01:30:49;10.25;;;1.52;;
51686;SDS011;37774;52.192;4.584;2022-12-31T01:33:16;7.60;;;0.85;;
51686;SDS011;37774;52.192;4.584;2022-12-31T01:35:42;10.40;;;1.27;;
51686;SDS011;37774;52.192;4.584;2022-12-31T01:38:09;3.42;;;0.70;;
51686;SDS011;37774;52.192;4.584;2022-12-31T01:40:36;14.73;;;1.25;;
51686;SDS011;37774;52.192;4.584;2022-12-31T01:43:05;10.60;;;1.10;;
51686;SDS011;37774;52.192;4.584;2022-12-31T01:45:40;12.20;;;1.67;;
51686;SDS011;37774;52.192;4.584;2022-12-31T01:48:09;13.68;;;1.52;;
51686;SDS011;37774;52.192;4.584;2022-12-31T01:50:39;10.57;;;1.67;;
51686;SDS011;37774;52.192;4.584;2022-12-31T01:53:08;6.93;;;0.75;;
51686;SDS011;37774;52.192;4.584;2022-12-31T01:55:37;9.95;;;1.08;;
51686;SDS011;37774;52.192;4.584;2022-12-31T01:58:10;11.93;;;1.50;;
51686;SDS011;37774;52.192;4.584;2022-12-31T02:00:39;2.20;;;0.80;;
51686;SDS011;37774;52.192;4.584;2022-12-31T02:03:08;12.65;;;1.23;;
51686;SDS011;37774;52.192;4.584;2022-12-31T02:05:37;10.75;;;1.63;;
51686;SDS011;37774;52.192;4.584;2022-12-31T02:08:09;7.43;;;1.42;;
51686;SDS011;37774;52.192;4.584;2022-12-31T02:10:36;11.82;;;1.88;;
51686;SDS011;37774;52.192;4.584;2022-12-31T02:13:04;3.00;;;1.50;;
51686;SDS011;37774;52.192;4.584;2022-12-31T02:15:38;14.10;;;1.70;;
51686;SDS011;37774;52.192;4.584;2022-12-31T02:18:16;4.45;;;1.20;;
51686;SDS011;37774;52.192;4.584;2022-12-31T02:20:53;7.97;;;1.40;;
51686;SDS011;37774;52.192;4.584;2022-12-31T02:26:43;3.08;;;0.90;;
51686;SDS011;37774;52.192;4.584;2022-12-31T02:32:28;5.80;;;2.40;;
51686;SDS011;37774;52.192;4.584;2022-12-31T02:35:00;10.20;;;1.92;;
51686;SDS011;37774;52.192;4.584;2022-12-31T02:37:33;8.38;;;2.03;;
51686;SDS011;37774;52.192;4.584;2022-12-31T02:40:02;7.47;;;1.40;;
51686;SDS011;37774;52.192;4.584;2022-12-31T02:42:31;9.98;;;1.70;;
51686;SDS011;37774;52.192;4.584;2022-12-31T02:44:59;8.02;;;1.70;;
51686;SDS011;37774;52.192;4.584;2022-12-31T02:47:29;17.40;;;1.80;;
51686;SDS011;37774;52.192;4.584;2022-12-31T02:50:12;19.15;;;2.35;;
51686;SDS011;37774;52.192;4.584;2022-12-31T02:52:50;5.07;;;1.58;;
51686;SDS011;37774;52.192;4.584;2022-12-31T02:55:24;3.65;;;1.45;;
51686;SDS011;37774;52.192;4.584;2022-12-31T02:57:57;8.52;;;1.60;;
51686;SDS011;37774;52.192;4.584;2022-12-31T03:00:36;9.02;;;1.58;;
51686;SDS011;37774;52.192;4.584;2022-12-31T03:03:25;8.75;;;1.27;;
51686;SDS011;37774;52.192;4.584;2022-12-31T03:05:53;10.68;;;1.92;;
51686;SDS011;37774;52.192;4.584;2022-12-31T03:08:22;9.88;;;1.45;;
51686;SDS011;37774;52.192;4.584;2022-12-31T03:10:51;9.73;;;2.20;;
51686;SDS011;37774;52.192;4.584;2022-12-31T03:13:21;4.32;;;1.83;;
51686;SDS011;37774;52.192;4.584;2022-12-31T03:15:48;6.90;;;1.40;;
51686;SDS011;37774;52.192;4.584;2022-12-31T03:18:15;17.65;;;1.90;;
51686;SDS011;37774;52.192;4.584;2022-12-31T03:21:09;8.23;;;1.85;;
51686;SDS011;37774;52.192;4.584;2022-12-31T03:23:55;10.55;;;1.35;;
51686;SDS011;37774;52.192;4.584;2022-12-31T03:26:39;4.53;;;1.10;;
51686;SDS011;37774;52.192;4.584;2022-12-31T03:29:06;1.48;;;0.60;;
51686;SDS011;37774;52.192;4.584;2022-12-31T03:31:34;14.43;;;1.27;;
51686;SDS011;37774;52.192;4.584;2022-12-31T03:34:01;11.50;;;1.35;;
51686;SDS011;37774;52.192;4.584;2022-12-31T03:36:28;4.22;;;0.90;;
51686;SDS011;37774;52.192;4.584;2022-12-31T03:38:55;8.35;;;0.88;;
51686;SDS011;37774;52.192;4.584;2022-12-31T03:41:21;7.47;;;0.82;;
51686;SDS011;37774;52.192;4.584;2022-12-31T03:43:48;9.27;;;1.50;;
51686;SDS011;37774;52.192;4.584;2022-12-31T03:46:15;6.35;;;1.00;;
51686;SDS011;37774;52.192;4.584;2022-12-31T03:48:43;5.47;;;0.52;;
51686;SDS011;37774;52.192;4.584;2022-12-31T03:51:10;5.60;;;0.75;;
51686;SDS011;37774;52.192;4.584;2022-12-31T03:53:37;13.55;;;1.05;;
51686;SDS011;37774;52.192;4.584;2022-12-31T03:56:04;3.95;;;0.50;;
51686;SDS011;37774;52.192;4.584;2022-12-31T03:58:31;6.38;;;0.43;;
51686;SDS011;37774;52.192;4.584;2022-12-31T04:00:58;8.90;;;0.88;;
51686;SDS011;37774;52.192;4.584;2022-12-31T04:03:25;4.78;;;1.30;;
51686;SDS011;37774;52.192;4.584;2022-12-31T04:05:54;5.30;;;0.70;;
51686;SDS011;37774;52.192;4.584;2022-12-31T04:08:21;3.75;;;0.98;;
51686;SDS011;37774;52.192;4.584;2022-12-31T04:10:48;11.38;;;0.82;;
51686;SDS011;37774;52.192;4.584;2022-12-31T04:13:15;9.48;;;0.80;;
51686;SDS011;37774;52.192;4.584;2022-12-31T04:15:41;2.53;;;0.55;;
51686;SDS011;37774;52.192;4.584;2022-12-31T04:18:08;6.82;;;0.90;;
51686;SDS011;37774;52.192;4.584;2022-12-31T04:20:35;7.55;;;0.85;;
51686;SDS011;37774;52.192;4.584;2022-12-31T04:23:03;6.28;;;0.90;;
51686;SDS011;37774;52.192;4.584;2022-12-31T04:25:30;8.38;;;1.20;;
51686;SDS011;37774;52.192;4.584;2022-12-31T04:27:57;6.65;;;1.55;;
51686;SDS011;37774;52.192;4.584;2022-12-31T04:30:24;8.40;;;0.85;;
51686;SDS011;37774;52.192;4.584;2022-12-31T04:32:50;10.93;;;1.42;;
51686;SDS011;37774;52.192;4.584;2022-12-31T04:35:17;6.65;;;0.98;;
51686;SDS011;37774;52.192;4.584;2022-12-31T04:37:44;4.57;;;1.52;;
51686;SDS011;37774;52.192;4.584;2022-12-31T04:40:13;8.07;;;1.33;;
51686;SDS011;37774;52.192;4.584;2022-12-31T04:42:39;8.73;;;1.30;;
51686;SDS011;37774;52.192;4.584;2022-12-31T04:45:06;8.15;;;1.15;;
51686;SDS011;37774;52.192;4.584;2022-12-31T04:47:34;7.30;;;1.23;;
51686;SDS011;37774;52.192;4.584;2022-12-31T04:50:01;7.20;;;1.58;;
51686;SDS011;37774;52.192;4.584;2022-12-31T04:52:28;3.92;;;1.27;;
51686;SDS011;37774;52.192;4.584;2022-12-31T04:54:54;9.65;;;1.45;;
51686;SDS011;37774;52.192;4.584;2022-12-31T04:57:22;4.32;;;1.75;;
51686;SDS011;37774;52.192;4.584;2022-12-31T04:59:49;3.47;;;1.85;;
51686;SDS011;37774;52.192;4.584;2022-12-31T05:02:16;7.35;;;2.58;;
51686;SDS011;37774;52.192;4.584;2022-12-31T05:04:43;4.25;;;1.90;;
51686;SDS011;37774;52.192;4.584;2022-12-31T05:07:10;7.32;;;1.92;;
51686;SDS011;37774;52.192;4.584;2022-12-31T05:09:36;4.90;;;2.20;;
51686;SDS011;37774;52.192;4.584;2022-12-31T05:12:03;8.40;;;3.30;;
51686;SDS011;37774;52.192;4.584;2022-12-31T05:14:32;8.45;;;3.78;;
51686;SDS011;37774;52.192;4.584;2022-12-31T05:16:59;7.20;;;3.97;;
51686;SDS011;37774;52.192;4.584;2022-12-31T05:19:26;10.07;;;4.32;;
51686;SDS011;37774;52.192;4.584;2022-12-31T05:21:52;14.48;;;4.97;;
51686;SDS011;37774;52.192;4.584;2022-12-31T05:24:33;9.70;;;5.15;;
51686;SDS011;37774;52.192;4.584;2022-12-31T05:27:00;11.27;;;5.60;;
51686;SDS011;37774;52.192;4.584;2022-12-31T05:29:27;14.55;;;5.28;;
51686;SDS011;37774;52.192;4.584;2022-12-31T05:31:55;13.23;;;5.22;;
51686;SDS011;37774;52.192;4.584;2022-12-31T05:34:22;8.43;;;4.43;;
51686;SDS011;37774;52.192;4.584;2022-12-31T05:36:49;6.55;;;4.45;;
51686;SDS011;37774;52.192;4.584;2022-12-31T05:39:16;10.93;;;4.10;;
51686;SDS011;37774;52.192;4.584;2022-12-31T05:41:43;7.88;;;4.85;;
51686;SDS011;37774;52.192;4.584;2022-12-31T05:44:09;9.15;;;4.20;;
51686;SDS011;37774;52.192;4.584;2022-12-31T05:46:37;12.80;;;5.32;;
51686;SDS011;37774;52.192;4.584;2022-12-31T05:49:05;8.77;;;5.75;;
51686;SDS011;37774;52.192;4.584;2022-12-31T05:51:32;7.18;;;4.57;;
51686;SDS011;37774;52.192;4.584;2022-12-31T05:53:58;9.23;;;4.20;;
51686;SDS011;37774;52.192;4.584;2022-12-31T05:56:25;8.57;;;4.07;;
51686;SDS011;37774;52.192;4.584;2022-12-31T05:58:52;8.13;;;3.90;;
51686;SDS011;37774;52.192;4.584;2022-12-31T06:01:19;9.05;;;3.78;;
51686;SDS011;37774;52.192;4.584;2022-12-31T06:03:46;8.50;;;4.15;;
51686;SDS011;37774;52.192;4.584;2022-12-31T06:06:14;7.28;;;3.63;;
51686;SDS011;37774;52.192;4.584;2022-12-31T06:08:41;5.18;;;2.92;;
51686;SDS011;37774;52.192;4.584;2022-12-31T06:11:07;8.43;;;3.53;;
51686;SDS011;37774;52.192;4.584;2022-12-31T06:13:34;5.55;;;2.88;;
51686;SDS011;37774;52.192;4.584;2022-12-31T06:16:03;8.18;;;2.35;;
51686;SDS011;37774;52.192;4.584;2022-12-31T06:18:30;6.63;;;2.30;;
51686;SDS011;37774;52.192;4.584;2022-12-31T06:20:57;3.72;;;2.65;;
51686;SDS011;37774;52.192;4.584;2022-12-31T06:23:26;3.85;;;1.90;;
51686;SDS011;37774;52.192;4.584;2022-12-31T06:25:53;3.10;;;1.88;;
51686;SDS011;37774;52.192;4.584;2022-12-31T06:28:19;3.95;;;2.08;;
51686;SDS011;37774;52.192;4.584;2022-12-31T06:30:46;4.45;;;2.45;;
51686;SDS011;37774;52.192;4.584;2022-12-31T06:33:13;3.08;;;2.00;;
51686;SDS011;37774;52.192;4.584;2022-12-31T06:35:40;3.65;;;2.13;;
51686;SDS011;37774;52.192;4.584;2022-12-31T06:38:07;7.45;;;2.70;;
51686;SDS011;37774;52.192;4.584;2022-12-31T06:40:37;2.60;;;1.67;;
51686;SDS011;37774;52.192;4.584;2022-12-31T06:43:03;4.97;;;1.75;;
51686;SDS011;37774;52.192;4.584;2022-12-31T06:45:30;2.33;;;1.42;;
51686;SDS011;37774;52.192;4.584;2022-12-31T06:47:57;1.75;;;1.50;;
51686;SDS011;37774;52.192;4.584;2022-12-31T06:50:24;3.15;;;1.92;;
51686;SDS011;37774;52.192;4.584;2022-12-31T06:52:51;1.75;;;1.23;;
51686;SDS011;37774;52.192;4.584;2022-12-31T06:55:18;2.47;;;1.40;;
51686;SDS011;37774;52.192;4.584;2022-12-31T06:57:47;1.77;;;1.15;;
51686;SDS011;37774;52.192;4.584;2022-12-31T07:00:14;1.42;;;0.90;;
51686;SDS011;37774;52.192;4.584;2022-12-31T07:02:52;1.65;;;1.10;;
51686;SDS011;37774;52.192;4.584;2022-12-31T07:05:35;0.82;;;0.68;;
51686;SDS011;37774;52.192;4.584;2022-12-31T07:08:11;3.75;;;0.75;;
51686;SDS011;37774;52.192;4.584;2022-12-31T07:10:47;0.68;;;0.68;;
51686;SDS011;37774;52.192;4.584;2022-12-31T07:13:30;1.10;;;0.35;;
51686;SDS011;37774;52.192;4.584;2022-12-31T07:16:19;0.40;;;0.30;;
51686;SDS011;37774;52.192;4.584;2022-12-31T07:19:09;0.52;;;0.22;;
51686;SDS011;37774;52.192;4.584;2022-12-31T07:21:43;3.63;;;0.60;;
51686;SDS011;37774;52.192;4.584;2022-12-31T07:24:10;3.63;;;0.32;;
51686;SDS011;37774;52.192;4.584;2022-12-31T07:26:44;0.95;;;0.45;;
51686;SDS011;37774;52.192;4.584;2022-12-31T07:29:23;0.95;;;0.30;;
51686;SDS011;37774;52.192;4.584;2022-12-31T07:31:58;1.52;;;0.75;;
51686;SDS011;37774;52.192;4.584;2022-12-31T07:34:31;2.42;;;0.43;;
51686;SDS011;37774;52.192;4.584;2022-12-31T07:37:10;7.22;;;0.90;;
51686;SDS011;37774;52.192;4.584;2022-12-31T07:39:40;5.05;;;0.80;;
51686;SDS011;37774;52.192;4.584;2022-12-31T07:42:14;1.70;;;1.25;;
51686;SDS011;37774;52.192;4.584;2022-12-31T07:45:00;7.07;;;0.73;;
51686;SDS011;37774;52.192;4.584;2022-12-31T07:47:33;2.63;;;0.98;;
51686;SDS011;37774;52.192;4.584;2022-12-31T07:50:00;5.55;;;1.10;;
51686;SDS011;37774;52.192;4.584;2022-12-31T07:52:28;5.13;;;0.75;;
51686;SDS011;37774;52.192;4.584;2022-12-31T07:54:55;2.22;;;0.82;;
51686;SDS011;37774;52.192;4.584;2022-12-31T07:57:22;1.58;;;0.40;;
51686;SDS011;37774;52.192;4.584;2022-12-31T08:00:00;3.97;;;0.90;;
51686;SDS011;37774;52.192;4.584;2022-12-31T08:02:38;3.08;;;0.40;;
51686;SDS011;37774;52.192;4.584;2022-12-31T08:05:19;0.20;;;0.10;;
51686;SDS011;37774;52.192;4.584;2022-12-31T08:07:53;1.55;;;0.32;;
51686;SDS011;37774;52.192;4.584;2022-12-31T08:10:30;0.35;;;0.22;;
51686;SDS011;37774;52.192;4.584;2022-12-31T08:13:01;0.28;;;0.15;;
51686;SDS011;37774;52.192;4.584;2022-12-31T08:15:32;3.45;;;0.40;;
51686;SDS011;37774;52.192;4.584;2022-12-31T08:17:59;2.00;;;0.73;;
51686;SDS011;37774;52.192;4.584;2022-12-31T08:20:26;5.13;;;0.40;;
51686;SDS011;37774;52.192;4.584;2022-12-31T08:23:14;2.47;;;0.50;;
51686;SDS011;37774;52.192;4.584;2022-12-31T08:25:55;19.10;;;1.63;;
51686;SDS011;37774;52.192;4.584;2022-12-31T08:28:35;1.98;;;1.00;;
51686;SDS011;37774;52.192;4.584;2022-12-31T08:31:26;7.15;;;0.80;;
51686;SDS011;37774;52.192;4.584;2022-12-31T08:33:59;12.38;;;1.38;;
51686;SDS011;37774;52.192;4.584;2022-12-31T08:36:35;5.22;;;0.57;;
51686;SDS011;37774;52.192;4.584;2022-12-31T08:41:43;17.35;;;1.52;;
51686;SDS011;37774;52.192;4.584;2022-12-31T08:44:14;13.27;;;1.65;;
51686;SDS011;37774;52.192;4.584;2022-12-31T08:46:52;8.13;;;0.93;;
51686;SDS011;37774;52.192;4.584;2022-12-31T08:49:22;4.85;;;0.93;;
51686;SDS011;37774;52.192;4.584;2022-12-31T08:51:52;6.68;;;0.85;;
51686;SDS011;37774;52.192;4.584;2022-12-31T08:54:20;10.25;;;1.33;;
51686;SDS011;37774;52.192;4.584;2022-12-31T08:56:51;14.40;;;1.15;;
51686;SDS011;37774;52.192;4.584;2022-12-31T08:59:27;10.60;;;1.17;;
51686;SDS011;37774;52.192;4.584;2022-12-31T09:02:12;10.40;;;1.10;;
51686;SDS011;37774;52.192;4.584;2022-12-31T09:04:59;8.32;;;0.95;;
51686;SDS011;37774;52.192;4.584;2022-12-31T09:07:35;10.00;;;1.17;;
51686;SDS011;37774;52.192;4.584;2022-12-31T09:10:06;7.97;;;1.45;;
51686;SDS011;37774;52.192;4.584;2022-12-31T09:12:45;4.78;;;0.73;;
51686;SDS011;37774;52.192;4.584;2022-12-31T09:15:22;6.65;;;1.30;;
51686;SDS011;37774;52.192;4.584;2022-12-31T09:17:57;8.23;;;1.05;;
51686;SDS011;37774;52.192;4.584;2022-12-31T09:20:25;6.85;;;0.63;;
51686;SDS011;37774;52.192;4.584;2022-12-31T09:22:54;9.80;;;1.35;;
51686;SDS011;37774;52.192;4.584;2022-12-31T09:25:22;10.57;;;0.88;;
51686;SDS011;37774;52.192;4.584;2022-12-31T09:27:52;9.27;;;0.95;;
51686;SDS011;37774;52.192;4.584;2022-12-31T09:30:31;7.32;;;1.10;;
51686;SDS011;37774;52.192;4.584;2022-12-31T09:33:07;6.07;;;0.75;;
51686;SDS011;37774;52.192;4.584;2022-12-31T09:35:40;5.20;;;0.60;;
51686;SDS011;37774;52.192;4.584;2022-12-31T09:38:14;4.15;;;1.10;;
51686;SDS011;37774;52.192;4.584;2022-12-31T09:40:53;2.97;;;0.88;;
51686;SDS011;37774;52.192;4.584;2022-12-31T09:46:47;7.32;;;1.33;;
51686;SDS011;37774;52.192;4.584;2022-12-31T09:53:00;7.20;;;0.93;;
51686;SDS011;37774;52.192;4.584;2022-12-31T09:55:39;13.85;;;0.82;;
51686;SDS011;37774;52.192;4.584;2022-12-31T09:58:17;13.02;;;1.30;;
51686;SDS011;37774;52.192;4.584;2022-12-31T10:00:59;5.60;;;0.88;;
51686;SDS011;37774;52.192;4.584;2022-12-31T10:03:36;3.97;;;0.83;;
51686;SDS011;37774;52.192;4.584;2022-12-31T10:06:20;5.10;;;1.05;;
51686;SDS011;37774;52.192;4.584;2022-12-31T10:09:02;2.22;;;0.68;;
51686;SDS011;37774;52.192;4.584;2022-12-31T10:11:51;6.07;;;1.02;;
51686;SDS011;37774;52.192;4.584;2022-12-31T10:14:35;4.75;;;0.90;;
51686;SDS011;37774;52.192;4.584;2022-12-31T10:17:17;3.13;;;0.80;;
51686;SDS011;37774;52.192;4.584;2022-12-31T10:20:03;14.73;;;1.77;;
51686;SDS011;37774;52.192;4.584;2022-12-31T10:22:45;11.55;;;0.82;;
51686;SDS011;37774;52.192;4.584;2022-12-31T10:25:32;8.27;;;1.15;;
51686;SDS011;37774;52.192;4.584;2022-12-31T10:28:13;7.05;;;1.92;;
51686;SDS011;37774;52.192;4.584;2022-12-31T10:30:53;3.42;;;1.00;;
51686;SDS011;37774;52.192;4.584;2022-12-31T10:33:33;8.15;;;1.60;;
51686;SDS011;37774;52.192;4.584;2022-12-31T10:36:08;9.00;;;1.38;;
51686;SDS011;37774;52.192;4.584;2022-12-31T10:38:44;5.35;;;1.00;;
51686;SDS011;37774;52.192;4.584;2022-12-31T10:41:27;4.60;;;1.17;;
51686;SDS011;37774;52.192;4.584;2022-12-31T10:50:28;9.88;;;0.95;;
51686;SDS011;37774;52.192;4.584;2022-12-31T10:56:13;6.47;;;1.40;;
51686;SDS011;37774;52.192;4.584;2022-12-31T10:59:07;5.20;;;1.20;;
51686;SDS011;37774;52.192;4.584;2022-12-31T11:01:59;8.10;;;1.52;;
51686;SDS011;37774;52.192;4.584;2022-12-31T11:04:48;4.28;;;1.23;;
51686;SDS011;37774;52.192;4.584;2022-12-31T11:07:44;5.75;;;1.48;;
51686;SDS011;37774;52.192;4.584;2022-12-31T11:10:34;3.10;;;1.30;;
51686;SDS011;37774;52.192;4.584;2022-12-31T11:13:28;2.05;;;1.38;;
51686;SDS011;37774;52.192;4.584;2022-12-31T11:16:18;3.63;;;1.90;;
51686;SDS011;37774;52.192;4.584;2022-12-31T11:18:56;2.72;;;0.93;;
51686;SDS011;37774;52.192;4.584;2022-12-31T11:21:31;3.55;;;1.05;;
51686;SDS011;37774;52.192;4.584;2022-12-31T11:24:15;6.93;;;1.13;;
51686;SDS011;37774;52.192;4.584;2022-12-31T11:26:54;10.60;;;1.50;;
51686;SDS011;37774;52.192;4.584;2022-12-31T11:29:35;6.20;;;1.00;;
51686;SDS011;37774;52.192;4.584;2022-12-31T11:32:20;6.28;;;1.02;;
51686;SDS011;37774;52.192;4.584;2022-12-31T11:35:03;6.65;;;1.52;;
51686;SDS011;37774;52.192;4.584;2022-12-31T11:37:42;6.05;;;0.82;;
51686;SDS011;37774;52.192;4.584;2022-12-31T11:43:20;5.35;;;1.23;;
51686;SDS011;37774;52.192;4.584;2022-12-31T11:46:00;7.70;;;1.33;;
51686;SDS011;37774;52.192;4.584;2022-12-31T11:48:43;6.90;;;0.82;;
51686;SDS011;37774;52.192;4.584;2022-12-31T11:51:30;2.67;;;0.85;;
51686;SDS011;37774;52.192;4.584;2022-12-31T11:57:08;3.72;;;0.98;;
51686;SDS011;37774;52.192;4.584;2022-12-31T11:59:43;4.63;;;1.80;;
51686;SDS011;37774;52.192;4.584;2022-12-31T12:02:24;3.00;;;0.85;;
51686;SDS011;37774;52.192;4.584;2022-12-31T12:04:53;4.10;;;0.73;;
51686;SDS011;37774;52.192;4.584;2022-12-31T12:07:24;1.50;;;0.90;;
51686;SDS011;37774;52.192;4.584;2022-12-31T12:09:53;3.80;;;1.00;;
51686;SDS011;37774;52.192;4.584;2022-12-31T12:12:21;2.25;;;0.82;;
51686;SDS011;37774;52.192;4.584;2022-12-31T12:14:49;2.60;;;0.80;;
51686;SDS011;37774;52.192;4.584;2022-12-31T12:17:23;2.35;;;1.00;;
51686;SDS011;37774;52.192;4.584;2022-12-31T12:19:59;4.05;;;1.33;;
51686;SDS011;37774;52.192;4.584;2022-12-31T12:22:28;2.03;;;1.08;;
51686;SDS011;37774;52.192;4.584;2022-12-31T12:25:00;4.10;;;1.13;;
51686;SDS011;37774;52.192;4.584;2022-12-31T12:27:29;1.80;;;1.17;;
51686;SDS011;37774;52.192;4.584;2022-12-31T12:30:06;4.28;;;1.30;;
51686;SDS011;37774;52.192;4.584;2022-12-31T12:32:35;2.80;;;0.88;;
51686;SDS011;37774;52.192;4.584;2022-12-31T12:35:11;4.28;;;0.88;;
51686;SDS011;37774;52.192;4.584;2022-12-31T12:37:39;0.95;;;0.57;;
51686;SDS011;37774;52.192;4.584;2022-12-31T12:40:13;0.82;;;0.65;;
51686;SDS011;37774;52.192;4.584;2022-12-31T12:42:46;1.85;;;0.75;;
51686;SDS011;37774;52.192;4.584;2022-12-31T12:45:14;3.22;;;1.02;;
51686;SDS011;37774;52.192;4.584;2022-12-31T12:47:44;6.07;;;0.98;;
51686;SDS011;37774;52.192;4.584;2022-12-31T12:50:14;3.60;;;1.13;;
51686;SDS011;37774;52.192;4.584;2022-12-31T12:52:49;5.45;;;1.88;;
51686;SDS011;37774;52.192;4.584;2022-12-31T12:55:29;10.48;;;1.27;;
51686;SDS011;37774;52.192;4.584;2022-12-31T12:58:03;1.85;;;1.17;;
51686;SDS011;37774;52.192;4.584;2022-12-31T13:00:41;3.95;;;1.88;;
51686;SDS011;37774;52.192;4.584;2022-12-31T13:03:36;11.07;;;5.68;;
51686;SDS011;37774;52.192;4.584;2022-12-31T13:06:28;11.02;;;1.50;;
51686;SDS011;37774;52.192;4.584;2022-12-31T13:09:13;8.95;;;2.28;;
51686;SDS011;37774;52.192;4.584;2022-12-31T13:11:53;10.13;;;1.92;;
51686;SDS011;37774;52.192;4.584;2022-12-31T13:14:29;5.20;;;1.52;;
51686;SDS011;37774;52.192;4.584;2022-12-31T13:17:03;9.27;;;1.35;;
51686;SDS011;37774;52.192;4.584;2022-12-31T13:19:55;4.65;;;1.20;;
51686;SDS011;37774;52.192;4.584;2022-12-31T13:22:29;9.60;;;2.45;;
51686;SDS011;37774;52.192;4.584;2022-12-31T13:25:03;7.40;;;1.45;;
51686;SDS011;37774;52.192;4.584;2022-12-31T13:27:41;6.03;;;1.40;;
51686;SDS011;37774;52.192;4.584;2022-12-31T13:30:12;6.90;;;2.17;;
51686;SDS011;37774;52.192;4.584;2022-12-31T13:32:41;6.55;;;1.63;;
51686;SDS011;37774;52.192;4.584;2022-12-31T13:35:17;9.27;;;1.60;;
51686;SDS011;37774;52.192;4.584;2022-12-31T13:37:49;8.00;;;1.92;;
51686;SDS011;37774;52.192;4.584;2022-12-31T13:40:22;6.43;;;2.35;;
51686;SDS011;37774;52.192;4.584;2022-12-31T13:42:53;7.60;;;1.60;;
51686;SDS011;37774;52.192;4.584;2022-12-31T13:45:26;1.80;;;1.20;;
51686;SDS011;37774;52.192;4.584;2022-12-31T13:47:59;5.35;;;1.17;;
51686;SDS011;37774;52.192;4.584;2022-12-31T13:50:35;8.70;;;1.42;;
51686;SDS011;37774;52.192;4.584;2022-12-31T13:53:12;4.47;;;1.15;;
51686;SDS011;37774;52.192;4.584;2022-12-31T13:55:46;4.45;;;1.27;;
51686;SDS011;37774;52.192;4.584;2022-12-31T13:58:18;4.75;;;1.38;;
51686;SDS011;37774;52.192;4.584;2022-12-31T14:00:57;6.72;;;1.35;;
51686;SDS011;37774;52.192;4.584;2022-12-31T14:03:33;6.25;;;1.27;;
51686;SDS011;37774;52.192;4.584;2022-12-31T14:06:08;5.40;;;1.88;;
51686;SDS011;37774;52.192;4.584;2022-12-31T14:08:42;4.50;;;1.35;;
51686;SDS011;37774;52.192;4.584;2022-12-31T14:11:11;9.43;;;1.60;;
51686;SDS011;37774;52.192;4.584;2022-12-31T14:13:46;4.55;;;1.25;;
51686;SDS011;37774;52.192;4.584;2022-12-31T14:16:31;7.05;;;1.90;;
51686;SDS011;37774;52.192;4.584;2022-12-31T14:19:04;3.42;;;1.35;;
51686;SDS011;37774;52.192;4.584;2022-12-31T14:21:43;2.90;;;1.45;;
51686;SDS011;37774;52.192;4.584;2022-12-31T14:24:15;7.45;;;2.13;;
51686;SDS011;37774;52.192;4.584;2022-12-31T14:26:55;8.90;;;1.77;;
51686;SDS011;37774;52.192;4.584;2022-12-31T14:29:28;8.15;;;2.10;;
51686;SDS011;37774;52.192;4.584;2022-12-31T14:32:05;8.60;;;1.45;;
51686;SDS011;37774;52.192;4.584;2022-12-31T14:34:45;11.65;;;1.90;;
51686;SDS011;37774;52.192;4.584;2022-12-31T14:37:22;8.07;;;2.20;;
51686;SDS011;37774;52.192;4.584;2022-12-31T14:39:59;4.53;;;1.23;;
51686;SDS011;37774;52.192;4.584;2022-12-31T14:42:39;6.50;;;2.15;;
51686;SDS011;37774;52.192;4.584;2022-12-31T14:45:19;7.28;;;1.63;;
51686;SDS011;37774;52.192;4.584;2022-12-31T14:47:54;15.55;;;2.42;;
51686;SDS011;37774;52.192;4.584;2022-12-31T14:50:29;14.75;;;1.67;;
51686;SDS011;37774;52.192;4.584;2022-12-31T14:53:07;11.18;;;1.70;;
51686;SDS011;37774;52.192;4.584;2022-12-31T14:55:42;16.88;;;2.13;;
51686;SDS011;37774;52.192;4.584;2022-12-31T14:58:18;9.60;;;1.98;;
51686;SDS011;37774;52.192;4.584;2022-12-31T15:00:52;12.80;;;2.70;;
51686;SDS011;37774;52.192;4.584;2022-12-31T15:03:22;5.40;;;2.17;;
51686;SDS011;37774;52.192;4.584;2022-12-31T15:05:51;7.50;;;2.55;;
51686;SDS011;37774;52.192;4.584;2022-12-31T15:08:32;10.85;;;2.83;;
51686;SDS011;37774;52.192;4.584;2022-12-31T15:11:15;11.18;;;3.45;;
51686;SDS011;37774;52.192;4.584;2022-12-31T15:13:57;15.60;;;3.20;;
51686;SDS011;37774;52.192;4.584;2022-12-31T15:16:56;11.50;;;2.65;;
51686;SDS011;37774;52.192;4.584;2022-12-31T15:22:27;11.77;;;1.90;;
51686;SDS011;37774;52.192;4.584;2022-12-31T15:25:14;9.43;;;2.25;;
51686;SDS011;37774;52.192;4.584;2022-12-31T15:27:46;4.50;;;2.08;;
51686;SDS011;37774;52.192;4.584;2022-12-31T15:30:28;15.65;;;2.28;;
51686;SDS011;37774;52.192;4.584;2022-12-31T15:33:04;5.43;;;2.70;;
51686;SDS011;37774;52.192;4.584;2022-12-31T15:35:45;13.55;;;3.30;;
51686;SDS011;37774;52.192;4.584;2022-12-31T15:38:25;18.85;;;3.65;;
51686;SDS011;37774;52.192;4.584;2022-12-31T15:40:59;19.10;;;4.75;;
51686;SDS011;37774;52.192;4.584;2022-12-31T15:43:28;23.05;;;4.50;;
51686;SDS011;37774;52.192;4.584;2022-12-31T15:46:07;9.93;;;3.42;;
51686;SDS011;37774;52.192;4.584;2022-12-31T15:48:40;12.73;;;2.65;;
51686;SDS011;37774;52.192;4.584;2022-12-31T15:51:11;12.93;;;3.95;;
51686;SDS011;37774;52.192;4.584;2022-12-31T15:53:42;11.25;;;3.05;;
51686;SDS011;37774;52.192;4.584;2022-12-31T15:56:18;8.48;;;3.65;;